createdAt,value
2023-03-29T00:01:01.226Z,99835.77
2023-03-29T00:02:03.224Z,99833.14
2023-03-29T00:03:05.160Z,99836.56
2023-03-29T00:04:07.310Z,99829.50
2023-03-29T00:05:09.333Z,99837.34
2023-03-29T00:06:11.730Z,99841.70
2023-03-29T00:07:13.515Z,99839.92
2023-03-29T00:08:15.329Z,99838.28
2023-03-29T00:09:17.151Z,99839.17
2023-03-29T00:10:19.050Z,99843.54
2023-03-29T00:11:20.848Z,99846.22
2023-03-29T00:12:22.642Z,99843.61
2023-03-29T00:13:24.438Z,99845.30
2023-03-29T00:14:26.256Z,99850.56
2023-03-29T00:15:28.132Z,99858.45
2023-03-29T00:16:29.947Z,99861.19
2023-03-29T00:17:31.760Z,99860.39
2023-03-29T00:18:33.607Z,99861.28
2023-03-29T00:19:35.429Z,99868.38
2023-03-29T00:20:37.268Z,99868.42
2023-03-29T00:21:39.066Z,99866.70
2023-03-29T00:22:40.872Z,99870.22
2023-03-29T00:23:42.665Z,99866.74
2023-03-29T00:24:44.501Z,99869.42
2023-03-29T00:25:46.276Z,99866.80
2023-03-29T00:26:48.075Z,99870.32
2023-03-29T00:27:49.881Z,99864.21
2023-03-29T00:28:51.662Z,99864.27
2023-03-29T00:29:53.512Z,99862.53
2023-03-29T00:30:55.316Z,99866.09
2023-03-29T00:31:57.148Z,99877.51
2023-03-29T00:32:58.925Z,99875.68
2023-03-29T00:34:00.682Z,99878.31
2023-03-29T00:35:02.501Z,99884.50
2023-03-29T00:36:04.531Z,99888.02
2023-03-29T00:37:06.309Z,99890.70
2023-03-29T00:38:08.096Z,99884.55
2023-03-29T00:39:09.896Z,99897.74
2023-03-29T00:40:12.326Z,99889.91
2023-03-29T00:41:14.111Z,99889.02
2023-03-29T00:42:15.917Z,99889.02
2023-03-29T00:43:17.735Z,99895.96
2023-03-29T00:44:19.558Z,99896.01
2023-03-29T00:45:21.528Z,99892.53
2023-03-29T00:46:23.422Z,99894.33
2023-03-29T00:47:25.215Z,99897.79
2023-03-29T00:48:27.091Z,99890.70
2023-03-29T00:49:28.768Z,99901.22
2023-03-29T00:50:30.593Z,99900.33
2023-03-29T00:51:32.401Z,99903.75
2023-03-29T00:52:34.197Z,99905.48
2023-03-29T00:53:36.008Z,99909.86
2023-03-29T00:54:37.795Z,99914.27
2023-03-29T00:55:39.620Z,99911.69
2023-03-29T00:56:41.455Z,99912.59
2023-03-29T00:57:43.363Z,99911.73
2023-03-29T00:58:45.139Z,99914.37
2023-03-29T00:59:46.923Z,99910.84
2023-03-29T01:00:48.750Z,99915.22
2023-03-29T01:01:51.628Z,99912.59
2023-03-29T01:02:53.522Z,99910.89
2023-03-29T01:03:55.366Z,99908.30
2023-03-29T01:04:57.109Z,99903.00
2023-03-29T01:05:58.955Z,99910.84
2023-03-29T01:07:00.994Z,99912.59
2023-03-29T01:08:02.955Z,99912.54
2023-03-29T01:09:04.776Z,99915.08
2023-03-29T01:10:06.742Z,99922.02
2023-03-29T01:11:08.581Z,99916.71
2023-03-29T01:12:10.398Z,99920.19
2023-03-29T01:13:12.181Z,99928.97
2023-03-29T01:14:13.968Z,99922.82
2023-03-29T01:15:15.771Z,99919.34
2023-03-29T01:16:17.938Z,99924.65
2023-03-29T01:17:19.720Z,99929.02
2023-03-29T01:18:21.544Z,99926.48
2023-03-29T01:19:23.316Z,99922.11
2023-03-29T01:20:25.111Z,99924.79
2023-03-29T01:21:27.119Z,99928.31
2023-03-29T01:22:28.910Z,99927.47
2023-03-29T01:23:30.739Z,99932.77
2023-03-29T01:24:32.558Z,99936.20
2023-03-29T01:25:34.360Z,99945.83
2023-03-29T01:26:36.198Z,99937.98
2023-03-29T01:27:38.006Z,99937.94
2023-03-29T01:28:39.795Z,99941.47
2023-03-29T01:29:41.594Z,99935.36
2023-03-29T01:30:43.391Z,99941.56
2023-03-29T01:31:45.276Z,99944.23
2023-03-29T01:32:47.057Z,99944.28
2023-03-29T01:33:48.816Z,99946.06
2023-03-29T01:34:50.668Z,99947.81
2023-03-29T01:35:52.515Z,99954.00
2023-03-29T01:36:54.401Z,99955.74
2023-03-29T01:37:56.192Z,99947.00
2023-03-29T01:38:58.013Z,99950.48
2023-03-29T01:39:59.827Z,99947.90
2023-03-29T01:41:01.760Z,99952.31
2023-03-29T01:42:03.675Z,99949.63
2023-03-29T01:43:05.469Z,99954.04
2023-03-29T01:44:07.271Z,99952.31
2023-03-29T01:45:09.113Z,99950.58
2023-03-29T01:46:11.320Z,99953.16
2023-03-29T01:47:13.164Z,99957.52
2023-03-29T01:48:14.972Z,99953.11
2023-03-29T01:49:16.757Z,99953.16
2023-03-29T01:50:18.572Z,99953.16
2023-03-29T01:51:20.402Z,99952.27
2023-03-29T01:52:22.334Z,99947.90
2023-03-29T01:53:24.163Z,99949.68
2023-03-29T01:54:25.932Z,99952.27
2023-03-29T01:55:27.735Z,99942.64
2023-03-29T01:56:29.601Z,99945.27
2023-03-29T01:57:31.522Z,99946.16
2023-03-29T01:58:33.319Z,99944.42
2023-03-29T01:59:35.118Z,99947.14
2023-03-29T02:00:36.918Z,99943.75
2023-03-29T02:01:38.784Z,99941.22
2023-03-29T02:02:40.870Z,99943.89
2023-03-29T02:03:42.776Z,99939.53
2023-03-29T02:04:44.777Z,99945.73
2023-03-29T02:05:46.579Z,99947.55
2023-03-29T02:06:48.369Z,99937.94
2023-03-29T02:07:50.209Z,99946.72
2023-03-29T02:08:52.019Z,99947.64
2023-03-29T02:09:53.825Z,99946.80
2023-03-29T02:10:55.620Z,99948.58
2023-03-29T02:11:57.420Z,99942.47
2023-03-29T02:12:59.264Z,99944.22
2023-03-29T02:14:01.079Z,99945.10
2023-03-29T02:15:02.884Z,99938.11
2023-03-29T02:16:04.675Z,99938.96
2023-03-29T02:17:06.474Z,99935.39
2023-03-29T02:18:08.354Z,99937.12
2023-03-29T02:19:10.216Z,99937.12
2023-03-29T02:20:12.316Z,99944.08
2023-03-29T02:21:14.117Z,99946.70
2023-03-29T02:22:15.918Z,99946.61
2023-03-29T02:23:17.763Z,99952.63
2023-03-29T02:24:19.584Z,99945.55
2023-03-29T02:25:21.362Z,99948.13
2023-03-29T02:26:23.161Z,99949.86
2023-03-29T02:27:24.969Z,99959.53
2023-03-29T02:28:26.708Z,99957.80
2023-03-29T02:29:28.484Z,99963.95
2023-03-29T02:30:30.281Z,99967.46
2023-03-29T02:31:32.141Z,99963.09
2023-03-29T02:32:33.916Z,99969.25
2023-03-29T02:33:35.735Z,99977.18
2023-03-29T02:34:37.420Z,99979.85
2023-03-29T02:35:39.290Z,99981.63
2023-03-29T02:36:41.130Z,99977.18
2023-03-29T02:37:42.938Z,99979.81
2023-03-29T02:38:44.760Z,99978.06
2023-03-29T02:39:46.549Z,99980.69
2023-03-29T02:40:48.350Z,99974.55
2023-03-29T02:41:50.160Z,99978.87
2023-03-29T02:42:51.955Z,99984.98
2023-03-29T02:43:53.784Z,99982.39
2023-03-29T02:44:55.569Z,99986.80
2023-03-29T02:45:57.378Z,99980.65
2023-03-29T02:46:59.259Z,99987.56
2023-03-29T02:48:01.143Z,99984.94
2023-03-29T02:49:02.925Z,99981.37
2023-03-29T02:50:04.712Z,99979.63
2023-03-29T02:51:06.514Z,99985.77
2023-03-29T02:52:08.366Z,99989.20
2023-03-29T02:53:10.124Z,99983.99
2023-03-29T02:54:11.967Z,99984.75
2023-03-29T02:55:13.768Z,99983.01
2023-03-29T02:56:15.551Z,99983.01
2023-03-29T02:57:17.429Z,99985.55
2023-03-29T02:58:19.256Z,99982.88
2023-03-29T02:59:21.098Z,99982.88
2023-03-29T03:00:22.897Z,99974.10
2023-03-29T03:01:24.806Z,99975.03
2023-03-29T03:02:26.630Z,99975.88
2023-03-29T03:03:28.577Z,99976.73
2023-03-29T03:04:30.456Z,99980.29
2023-03-29T03:05:32.284Z,99983.77
2023-03-29T03:06:34.095Z,99983.81
2023-03-29T03:07:35.894Z,99975.97
2023-03-29T03:08:37.704Z,99979.45
2023-03-29T03:09:39.539Z,99975.12
2023-03-29T03:10:41.347Z,99980.38
2023-03-29T03:11:43.143Z,99975.97
2023-03-29T03:12:44.995Z,99976.87
2023-03-29T03:13:46.784Z,99983.91
2023-03-29T03:14:48.637Z,99985.69
2023-03-29T03:15:50.482Z,99985.73
2023-03-29T03:16:52.274Z,99984.80
2023-03-29T03:17:54.145Z,99983.95
2023-03-29T03:18:55.992Z,99977.84
2023-03-29T03:19:57.883Z,99979.54
2023-03-29T03:20:59.806Z,99983.09
2023-03-29T03:22:01.780Z,99984.80
2023-03-29T03:23:03.635Z,99979.54
2023-03-29T03:24:05.418Z,99995.31
2023-03-29T03:25:07.233Z,99986.75
2023-03-29T03:26:09.045Z,99993.70
2023-03-29T03:27:10.848Z,99995.41
2023-03-29T03:28:12.632Z,99996.38
2023-03-29T03:29:14.432Z,100002.48
2023-03-29T03:30:16.612Z,99994.59
2023-03-29T03:31:18.435Z,99995.49
2023-03-29T03:32:20.201Z,99997.18
2023-03-29T03:33:22.100Z,99998.96
2023-03-29T03:34:23.892Z,99998.96
2023-03-29T03:35:25.772Z,99995.45
2023-03-29T03:36:27.526Z,100003.29
2023-03-29T03:37:29.320Z,100003.25
2023-03-29T03:38:31.115Z,99999.72
2023-03-29T03:39:32.903Z,100010.23
2023-03-29T03:40:34.751Z,100009.39
2023-03-29T03:41:36.538Z,100004.94
2023-03-29T03:42:38.324Z,100014.56
2023-03-29T03:43:40.118Z,100013.63
2023-03-29T03:44:41.908Z,100004.04
2023-03-29T03:45:43.777Z,100009.30
2023-03-29T03:46:45.536Z,100011.93
2023-03-29T03:47:47.456Z,100021.52
2023-03-29T03:48:49.202Z,100030.33
2023-03-29T03:49:51.005Z,100031.23
2023-03-29T03:50:52.834Z,100027.80
2023-03-29T03:51:55.996Z,100026.05
2023-03-29T03:52:57.829Z,100024.32
2023-03-29T03:53:59.617Z,100027.84
2023-03-29T03:55:01.416Z,100023.38
2023-03-29T03:56:03.239Z,100026.02
2023-03-29T03:57:05.043Z,100022.45
2023-03-29T03:58:06.811Z,100029.45
2023-03-29T03:59:08.604Z,100023.34
2023-03-29T04:00:10.385Z,100026.82
2023-03-29T04:01:12.191Z,100026.82
2023-03-29T04:02:14.038Z,100030.37
2023-03-29T04:03:15.928Z,100032.08
2023-03-29T04:04:17.918Z,100035.59
2023-03-29T04:05:19.677Z,100037.37
2023-03-29T04:06:21.521Z,100042.68
2023-03-29T04:07:23.343Z,100049.77
2023-03-29T04:08:25.119Z,100047.17
2023-03-29T04:09:26.904Z,100048.91
2023-03-29T04:10:28.696Z,100056.00
2023-03-29T04:11:30.526Z,100063.89
2023-03-29T04:12:32.337Z,100057.82
2023-03-29T04:13:34.111Z,100062.23
2023-03-29T04:14:35.820Z,100056.09
2023-03-29T04:15:37.618Z,100052.61
2023-03-29T04:16:39.530Z,100050.87
2023-03-29T04:17:41.437Z,100049.98
2023-03-29T04:18:43.273Z,100043.83
2023-03-29T04:19:45.072Z,100051.71
2023-03-29T04:20:46.882Z,100059.64
2023-03-29T04:21:48.716Z,100053.41
2023-03-29T04:22:50.496Z,100058.67
2023-03-29T04:23:52.286Z,100056.00
2023-03-29T04:24:54.063Z,100060.36
2023-03-29T04:25:55.890Z,100061.22
2023-03-29T04:26:57.684Z,100062.95
2023-03-29T04:27:59.462Z,100069.06
2023-03-29T04:29:01.250Z,100070.83
2023-03-29T04:30:03.042Z,100070.80
2023-03-29T04:31:05.047Z,100069.86
2023-03-29T04:32:07.178Z,100073.34
2023-03-29T04:33:09.004Z,100067.19
2023-03-29T04:34:10.877Z,100063.59
2023-03-29T04:35:12.651Z,100072.36
2023-03-29T04:36:15.093Z,100062.69
2023-03-29T04:37:16.882Z,100070.53
2023-03-29T04:38:18.667Z,100074.94
2023-03-29T04:39:20.450Z,100075.84
2023-03-29T04:40:22.260Z,100081.98
2023-03-29T04:41:24.062Z,100081.14
2023-03-29T04:42:25.976Z,100085.55
2023-03-29T04:43:27.759Z,100081.98
2023-03-29T04:44:29.550Z,100081.09
2023-03-29T04:45:31.358Z,100074.06
2023-03-29T04:46:33.209Z,100080.97
2023-03-29T04:47:35.322Z,100081.81
2023-03-29T04:48:37.078Z,100080.84
2023-03-29T04:49:38.861Z,100078.20
2023-03-29T04:50:40.639Z,100084.30
2023-03-29T04:51:42.415Z,100083.38
2023-03-29T04:52:44.204Z,100091.23
2023-03-29T04:53:45.969Z,100086.80
2023-03-29T04:54:47.730Z,100097.37
2023-03-29T04:55:49.539Z,100096.48
2023-03-29T04:56:51.365Z,100099.11
2023-03-29T04:57:53.153Z,100103.48
2023-03-29T04:58:54.935Z,100111.28
2023-03-29T04:59:56.732Z,100113.11
2023-03-29T05:00:58.528Z,100117.44
2023-03-29T05:02:00.333Z,100123.62
2023-03-29T05:03:02.155Z,100135.84
2023-03-29T05:04:03.955Z,100142.08
2023-03-29T05:05:05.722Z,100148.23
2023-03-29T05:06:07.635Z,100146.49
2023-03-29T05:07:09.414Z,100153.58
2023-03-29T05:08:11.242Z,100150.13
2023-03-29T05:09:12.925Z,100158.06
2023-03-29T05:10:14.836Z,100154.59
2023-03-29T05:11:16.605Z,100148.48
2023-03-29T05:12:18.394Z,100147.59
2023-03-29T05:13:20.224Z,100144.08
2023-03-29T05:14:22.014Z,100157.22
2023-03-29T05:15:23.803Z,100155.48
2023-03-29T05:16:25.606Z,100157.22
2023-03-29T05:17:27.619Z,100158.95
2023-03-29T05:18:29.519Z,100171.30
2023-03-29T05:19:31.309Z,100166.03
2023-03-29T05:20:33.103Z,100153.70
2023-03-29T05:21:34.898Z,100147.55
2023-03-29T05:22:36.696Z,100146.62
2023-03-29T05:23:38.535Z,100148.31
2023-03-29T05:24:40.323Z,100142.16
2023-03-29T05:25:42.127Z,100143.86
2023-03-29T05:26:44.031Z,100157.90
2023-03-29T05:27:45.899Z,100154.34
2023-03-29T05:28:47.774Z,100156.08
2023-03-29T05:29:49.555Z,100162.19
2023-03-29T05:30:51.339Z,100150.81
2023-03-29T05:31:53.270Z,100157.81
2023-03-29T05:32:55.053Z,100154.25
2023-03-29T05:33:56.855Z,100155.95
2023-03-29T05:34:58.647Z,100154.17
2023-03-29T05:36:00.463Z,100154.12
2023-03-29T05:37:02.268Z,100154.09
2023-03-29T05:38:04.064Z,100154.92
2023-03-29T05:39:05.905Z,100154.88
2023-03-29T05:40:08.132Z,100153.15
2023-03-29T05:41:09.933Z,100151.36
2023-03-29T05:42:11.737Z,100146.09
2023-03-29T05:43:13.527Z,100137.28
2023-03-29T05:44:15.368Z,100143.45
2023-03-29T05:45:17.177Z,100147.75
2023-03-29T05:46:19.085Z,100147.75
2023-03-29T05:47:20.901Z,100153.89
2023-03-29T05:48:22.673Z,100160.86
2023-03-29T05:49:24.507Z,100161.74
2023-03-29T05:50:26.346Z,100159.06
2023-03-29T05:51:28.135Z,100158.23
2023-03-29T05:52:29.940Z,100164.42
2023-03-29T05:53:34.747Z,100158.31
2023-03-29T05:54:36.642Z,100161.83
2023-03-29T05:55:38.458Z,100161.88
2023-03-29T05:56:40.303Z,100169.72
2023-03-29T05:57:42.063Z,100171.48
2023-03-29T05:58:43.860Z,100165.35
2023-03-29T05:59:45.718Z,100174.05
2023-03-29T06:00:47.713Z,100177.57
2023-03-29T06:01:49.526Z,100175.75
2023-03-29T06:02:51.393Z,100189.75
2023-03-29T06:03:53.328Z,100183.59
2023-03-29T06:04:55.413Z,100184.49
2023-03-29T06:05:57.347Z,100179.19
2023-03-29T06:06:59.125Z,100184.49
2023-03-29T06:08:00.941Z,100184.49
2023-03-29T06:09:02.728Z,100189.71
2023-03-29T06:10:04.576Z,100189.67
2023-03-29T06:11:06.637Z,100192.25
2023-03-29T06:12:08.624Z,100186.27
2023-03-29T06:13:10.409Z,100192.30
2023-03-29T06:14:12.091Z,100189.67
2023-03-29T06:15:13.955Z,100199.34
2023-03-29T06:16:15.725Z,100183.55
2023-03-29T06:17:17.719Z,100191.41
2023-03-29T06:18:19.574Z,100194.03
2023-03-29T06:19:21.384Z,100193.99
2023-03-29T06:20:23.202Z,100193.99
2023-03-29T06:21:25.002Z,100190.55
2023-03-29T06:22:26.829Z,100197.56
2023-03-29T06:23:28.653Z,100191.36
2023-03-29T06:24:30.557Z,100195.73
2023-03-29T06:25:32.387Z,100200.06
2023-03-29T06:26:34.221Z,100204.48
2023-03-29T06:27:36.043Z,100207.11
2023-03-29T06:28:37.852Z,100206.25
2023-03-29T06:29:39.620Z,100200.99
2023-03-29T06:30:41.439Z,100202.73
2023-03-29T06:31:43.287Z,100204.60
2023-03-29T06:32:45.208Z,100213.30
2023-03-29T06:33:47.027Z,100219.49
2023-03-29T06:34:48.830Z,100215.05
2023-03-29T06:35:50.712Z,100214.11
2023-03-29T06:36:52.480Z,100221.07
2023-03-29T06:37:54.381Z,100221.88
2023-03-29T06:38:56.181Z,100235.03
2023-03-29T06:39:58.035Z,100230.58
2023-03-29T06:41:00.066Z,100231.45
2023-03-29T06:42:10.096Z,100229.72
2023-03-29T06:43:05.585Z,100244.62
2023-03-29T06:44:07.411Z,100241.10
2023-03-29T06:45:09.219Z,100241.10
2023-03-29T06:46:11.628Z,100240.25
2023-03-29T06:47:13.471Z,100244.62
2023-03-29T06:48:15.339Z,100236.72
2023-03-29T06:49:17.320Z,100240.25
2023-03-29T06:50:19.137Z,100241.14
2023-03-29T06:51:23.194Z,100241.14
2023-03-29T06:52:24.607Z,100238.17
2023-03-29T06:53:26.405Z,100243.57
2023-03-29T06:54:28.197Z,100247.23
2023-03-29T06:55:30.004Z,100251.69
2023-03-29T06:56:31.869Z,100257.73
2023-03-29T06:57:33.850Z,100259.27
2023-03-29T06:58:35.596Z,100265.06
2023-03-29T06:59:37.408Z,100272.55
2023-03-29T07:00:39.314Z,100271.27
2023-03-29T07:01:41.177Z,100269.06
2023-03-29T07:02:43.039Z,100282.42
2023-03-29T07:03:46.657Z,100279.20
2023-03-29T07:04:48.609Z,100278.53
2023-03-29T07:05:50.558Z,100286.53
2023-03-29T07:06:52.502Z,100292.73
2023-03-29T07:07:54.384Z,100294.61
2023-03-29T07:08:56.334Z,100290.32
2023-03-29T07:09:58.164Z,100292.09
2023-03-29T07:11:00.202Z,100290.39
2023-03-29T07:12:02.230Z,100306.05
2023-03-29T07:13:04.096Z,100292.11
2023-03-29T07:14:05.960Z,100298.16
2023-03-29T07:15:07.762Z,100291.19
2023-03-29T07:16:09.902Z,100298.10
2023-03-29T07:17:11.761Z,100286.75
2023-03-29T07:18:13.574Z,100295.36
2023-03-29T07:19:15.445Z,100301.36
2023-03-29T07:20:17.239Z,100304.70
2023-03-29T07:21:19.073Z,100300.31
2023-03-29T07:22:20.889Z,100302.80
2023-03-29T07:23:22.710Z,100300.09
2023-03-29T07:24:24.425Z,100301.77
2023-03-29T07:25:26.229Z,100293.83
2023-03-29T07:26:28.890Z,100296.34
2023-03-29T07:27:31.791Z,100295.41
2023-03-29T07:28:33.625Z,100292.74
2023-03-29T07:29:35.449Z,100290.94
2023-03-29T07:30:37.318Z,100288.25
2023-03-29T07:31:39.119Z,100302.88
2023-03-29T07:32:41.083Z,100298.50
2023-03-29T07:33:43.139Z,100301.80
2023-03-29T07:34:44.932Z,100298.22
2023-03-29T07:35:46.831Z,100292.12
2023-03-29T07:36:48.715Z,100297.20
2023-03-29T07:37:50.639Z,100298.81
2023-03-29T07:38:53.963Z,100297.86
2023-03-29T07:39:56.063Z,100308.11
2023-03-29T07:40:57.973Z,100298.50
2023-03-29T07:41:59.790Z,100301.87
2023-03-29T07:43:02.764Z,100298.34
2023-03-29T07:44:04.577Z,100302.56
2023-03-29T07:45:06.399Z,100315.43
2023-03-29T07:46:08.823Z,100308.45
2023-03-29T07:47:10.744Z,100306.71
2023-03-29T07:48:12.679Z,100311.87
2023-03-29T07:49:14.562Z,100312.69
2023-03-29T07:50:16.386Z,100313.48
2023-03-29T07:51:18.168Z,100311.71
2023-03-29T07:52:20.085Z,100323.72
2023-03-29T07:53:21.927Z,100314.13
2023-03-29T07:54:23.747Z,100314.06
2023-03-29T07:55:25.539Z,100318.30
2023-03-29T07:56:27.349Z,100321.61
2023-03-29T07:57:29.244Z,100321.53
2023-03-29T07:58:31.299Z,100317.19
2023-03-29T07:59:33.125Z,100325.80
2023-03-29T08:00:34.997Z,100324.80
2023-03-29T08:01:36.834Z,100323.83
2023-03-29T08:02:38.641Z,100321.97
2023-03-29T08:03:40.563Z,100319.35
2023-03-29T08:04:42.386Z,100320.11
2023-03-29T08:05:44.256Z,100322.61
2023-03-29T08:06:46.068Z,100330.26
2023-03-29T08:07:47.999Z,100315.61
2023-03-29T08:08:49.848Z,100321.53
2023-03-29T08:09:51.653Z,100324.92
2023-03-29T08:10:53.475Z,100317.19
2023-03-29T08:11:55.279Z,100312.93
2023-03-29T08:12:57.114Z,100318.13
2023-03-29T08:13:58.953Z,100311.32
2023-03-29T08:15:00.757Z,100316.52
2023-03-29T08:16:02.557Z,100320.86
2023-03-29T08:17:04.478Z,100316.52
2023-03-29T08:18:06.323Z,100312.13
2023-03-29T08:19:08.215Z,100309.45
2023-03-29T08:20:10.635Z,100311.18
2023-03-29T08:21:12.446Z,100315.37
2023-03-29T08:22:14.250Z,100314.45
2023-03-29T08:23:16.040Z,100316.98
2023-03-29T08:24:20.389Z,100325.48
2023-03-29T08:25:21.501Z,100324.63
2023-03-29T08:26:23.317Z,100326.30
2023-03-29T08:27:25.131Z,100329.71
2023-03-29T08:28:26.934Z,100327.09
2023-03-29T08:29:28.784Z,100325.31
2023-03-29T08:30:30.588Z,100329.63
2023-03-29T08:31:32.459Z,100332.20
2023-03-29T08:32:34.350Z,100329.66
2023-03-29T08:33:36.118Z,100327.09
2023-03-29T08:34:37.970Z,100325.43
2023-03-29T08:35:39.808Z,100332.36
2023-03-29T08:36:41.594Z,100331.46
2023-03-29T08:37:43.403Z,100340.09
2023-03-29T08:38:45.203Z,100337.50
2023-03-29T08:39:47.760Z,100343.50
2023-03-29T08:40:49.579Z,100352.13
2023-03-29T08:41:51.396Z,100354.70
2023-03-29T08:42:53.286Z,100351.20
2023-03-29T08:43:55.101Z,100355.45
2023-03-29T08:44:56.951Z,100356.28
2023-03-29T08:45:58.802Z,100356.25
2023-03-29T08:47:00.618Z,100364.00
2023-03-29T08:48:02.690Z,100361.39
2023-03-29T08:49:04.425Z,100362.22
2023-03-29T08:50:06.283Z,100361.33
2023-03-29T08:51:09.916Z,100364.73
2023-03-29T08:52:11.708Z,100363.91
2023-03-29T08:53:13.511Z,100367.36
2023-03-29T08:54:15.310Z,100363.88
2023-03-29T08:55:17.158Z,100362.16
2023-03-29T08:56:18.976Z,100364.73
2023-03-29T08:57:20.795Z,100366.43
2023-03-29T08:58:22.575Z,100366.37
2023-03-29T08:59:24.378Z,100363.78
2023-03-29T09:00:26.686Z,100366.37
2023-03-29T09:01:28.518Z,100358.64
2023-03-29T09:02:30.356Z,100369.02
2023-03-29T09:03:32.423Z,100362.09
2023-03-29T09:04:34.433Z,100366.43
2023-03-29T09:05:36.284Z,100365.63
2023-03-29T09:06:38.199Z,100366.56
2023-03-29T09:07:40.006Z,100368.25
2023-03-29T09:08:41.804Z,100368.28
2023-03-29T09:09:43.621Z,100376.00
2023-03-29T09:10:45.479Z,100377.70
2023-03-29T09:11:47.281Z,100376.00
2023-03-29T09:12:49.135Z,100382.04
2023-03-29T09:13:51.051Z,100387.17
2023-03-29T09:14:53.868Z,100387.98
2023-03-29T09:15:55.767Z,100392.22
2023-03-29T09:16:57.612Z,100395.63
2023-03-29T09:17:59.447Z,100396.46
2023-03-29T09:19:01.343Z,100395.53
2023-03-29T09:20:03.137Z,100405.08
2023-03-29T09:21:04.991Z,100398.12
2023-03-29T09:22:06.796Z,100403.25
2023-03-29T09:23:08.603Z,100403.19
2023-03-29T09:24:10.323Z,100417.73
2023-03-29T09:25:12.116Z,100414.25
2023-03-29T09:26:14.057Z,100415.97
2023-03-29T09:27:15.865Z,100419.39
2023-03-29T09:28:17.673Z,100419.32
2023-03-29T09:29:19.494Z,100422.70
2023-03-29T09:30:21.338Z,100421.80
2023-03-29T09:31:23.189Z,100438.06
2023-03-29T09:32:24.951Z,100433.75
2023-03-29T09:33:26.765Z,100431.20
2023-03-29T09:34:28.573Z,100429.55
2023-03-29T09:35:30.400Z,100437.37
2023-03-29T09:36:32.218Z,100432.27
2023-03-29T09:37:34.019Z,100445.23
2023-03-29T09:38:35.827Z,100437.48
2023-03-29T09:39:37.640Z,100444.37
2023-03-29T09:40:39.487Z,100451.30
2023-03-29T09:41:41.295Z,100449.54
2023-03-29T09:42:43.093Z,100452.95
2023-03-29T09:43:44.912Z,100453.74
2023-03-29T09:44:46.626Z,100458.05
2023-03-29T09:45:48.496Z,100459.77
2023-03-29T09:46:50.311Z,100462.42
2023-03-29T09:47:52.123Z,100462.46
2023-03-29T09:48:53.904Z,100462.50
2023-03-29T09:49:55.705Z,100463.39
2023-03-29T09:50:57.504Z,100467.63
2023-03-29T09:52:17.501Z,100464.19
2023-03-29T09:53:22.384Z,100462.39
2023-03-29T09:54:24.189Z,100472.73
2023-03-29T09:55:26.099Z,100464.97
2023-03-29T09:56:28.215Z,100476.14
2023-03-29T09:57:30.137Z,100476.14
2023-03-29T09:58:31.961Z,100474.41
2023-03-29T09:59:33.778Z,100479.66
2023-03-29T10:00:35.593Z,100477.06
2023-03-29T10:01:37.450Z,100474.48
2023-03-29T10:02:39.390Z,100479.66
2023-03-29T10:03:41.147Z,100482.27
2023-03-29T10:04:42.967Z,100480.63
2023-03-29T10:05:44.755Z,100481.52
2023-03-29T10:06:46.551Z,100480.69
2023-03-29T10:07:48.398Z,100480.69
2023-03-29T10:08:50.193Z,100480.73
2023-03-29T10:09:52.029Z,100489.38
2023-03-29T10:10:53.812Z,100489.42
2023-03-29T10:11:55.622Z,100495.52
2023-03-29T10:12:57.481Z,100490.34
2023-03-29T10:13:59.339Z,100499.76
2023-03-29T10:15:01.169Z,100498.89
2023-03-29T10:16:02.972Z,100496.31
2023-03-29T10:17:04.742Z,100504.96
2023-03-29T10:18:06.589Z,100498.14
2023-03-29T10:19:08.394Z,100498.21
2023-03-29T10:20:10.291Z,100500.00
2023-03-29T10:21:12.091Z,100509.52
2023-03-29T10:22:13.887Z,100506.94
2023-03-29T10:23:15.732Z,100501.80
2023-03-29T10:24:17.543Z,100517.27
2023-03-29T10:25:19.340Z,100506.03
2023-03-29T10:26:21.145Z,100511.17
2023-03-29T10:27:23.073Z,100512.86
2023-03-29T10:28:24.926Z,100509.38
2023-03-29T10:29:26.717Z,100506.72
2023-03-29T10:30:28.526Z,100515.23
2023-03-29T10:31:30.384Z,100512.64
2023-03-29T10:32:32.236Z,100520.33
2023-03-29T10:33:34.083Z,100514.26
2023-03-29T10:34:35.901Z,100515.05
2023-03-29T10:35:37.778Z,100516.77
2023-03-29T10:36:39.606Z,100518.42
2023-03-29T10:37:41.422Z,100526.03
2023-03-29T10:38:43.391Z,100512.99
2023-03-29T10:39:45.180Z,100513.89
2023-03-29T10:40:47.036Z,100524.30
2023-03-29T10:41:48.898Z,100518.27
2023-03-29T10:42:50.700Z,100523.41
2023-03-29T10:43:52.628Z,100521.79
2023-03-29T10:44:54.443Z,100533.03
2023-03-29T10:45:56.412Z,100527.86
2023-03-29T10:46:58.358Z,100531.38
2023-03-29T10:48:00.220Z,100531.45
2023-03-29T10:49:02.115Z,100539.09
2023-03-29T10:50:06.210Z,100529.55
2023-03-29T10:51:08.054Z,100542.47
2023-03-29T10:52:09.864Z,100543.37
2023-03-29T10:53:11.660Z,100539.17
2023-03-29T10:54:13.499Z,100536.58
2023-03-29T10:55:15.305Z,100539.95
2023-03-29T10:56:17.113Z,100538.20
2023-03-29T10:57:20.375Z,100544.16
2023-03-29T10:58:22.528Z,100545.72
2023-03-29T10:59:24.423Z,100546.47
2023-03-29T11:00:26.279Z,100544.67
2023-03-29T11:01:28.119Z,100552.37
2023-03-29T11:02:29.989Z,100547.25
2023-03-29T11:03:31.880Z,100549.02
2023-03-29T11:04:34.356Z,100553.32
2023-03-29T11:05:36.144Z,100552.53
2023-03-29T11:06:37.942Z,100552.58
2023-03-29T11:07:39.751Z,100550.85
2023-03-29T11:08:41.552Z,100549.13
2023-03-29T11:09:43.400Z,100552.61
2023-03-29T11:10:45.193Z,100553.52
2023-03-29T11:11:46.993Z,100551.80
2023-03-29T11:12:48.888Z,100551.80
2023-03-29T11:13:50.671Z,100561.27
2023-03-29T11:14:52.518Z,100549.25
2023-03-29T11:15:54.388Z,100557.94
2023-03-29T11:16:56.173Z,100565.72
2023-03-29T11:17:58.092Z,100558.05
2023-03-29T11:18:59.890Z,100562.39
2023-03-29T11:20:03.712Z,100566.66
2023-03-29T11:21:08.595Z,100569.25
2023-03-29T11:22:09.045Z,100565.91
2023-03-29T11:23:11.370Z,100569.28
2023-03-29T11:24:13.187Z,100556.33
2023-03-29T11:25:15.032Z,100559.70
2023-03-29T11:26:16.946Z,100563.06
2023-03-29T11:27:18.756Z,100577.59
2023-03-29T11:28:20.573Z,100570.66
2023-03-29T11:29:22.348Z,100582.64
2023-03-29T11:30:24.214Z,100567.18
2023-03-29T11:31:26.276Z,100571.52
2023-03-29T11:32:28.119Z,100570.66
2023-03-29T11:33:29.923Z,100574.97
2023-03-29T11:34:31.725Z,100570.66
2023-03-29T11:35:33.585Z,100567.22
2023-03-29T11:36:35.369Z,100572.42
2023-03-29T11:37:37.167Z,100575.87
2023-03-29T11:38:38.975Z,100578.33
2023-03-29T11:39:40.786Z,100573.98
2023-03-29T11:40:42.629Z,100579.16
2023-03-29T11:41:44.438Z,100574.03
2023-03-29T11:42:46.345Z,100580.95
2023-03-29T11:43:48.165Z,100579.94
2023-03-29T11:44:50.793Z,100584.25
2023-03-29T11:45:53.616Z,100591.17
2023-03-29T11:46:55.482Z,100583.46
2023-03-29T11:47:57.356Z,100580.84
2023-03-29T11:48:59.145Z,100583.38
2023-03-29T11:50:00.947Z,100587.61
2023-03-29T11:51:02.832Z,100590.28
2023-03-29T11:52:04.772Z,100591.17
2023-03-29T11:53:06.580Z,100591.25